sensor_id;sensor_type;location;lat;lon;timestamp;pressure;altitude;pressure_sealevel;temperature;humidity
6528;BME280;64597;42.664;23.256;2023-03-15T00:02:00;93611.09;;;5.90;49.84
6528;BME280;64597;42.664;23.256;2023-03-15T00:04:27;93605.19;;;5.95;50.48
6528;BME280;64597;42.664;23.256;2023-03-15T00:06:52;93602.22;;;5.91;50.70
6528;BME280;64597;42.664;23.256;2023-03-15T00:09:18;93603.00;;;5.92;50.57
6528;BME280;64597;42.664;23.256;2023-03-15T00:11:44;93597.97;;;5.78;50.46
6528;BME280;64597;42.664;23.256;2023-03-15T00:14:10;93611.91;;;5.91;50.41
6528;BME280;64597;42.664;23.256;2023-03-15T00:16:35;93599.38;;;5.93;49.69
6528;BME280;64597;42.664;23.256;2023-03-15T00:19:01;93601.09;;;5.99;49.72
6528;BME280;64597;42.664;23.256;2023-03-15T00:21:26;93583.19;;;5.72;50.25
6528;BME280;64597;42.664;23.256;2023-03-15T00:23:54;93597.97;;;5.78;51.26
6528;BME280;64597;42.664;23.256;2023-03-15T00:26:20;93601.06;;;5.75;51.10
6528;BME280;64597;42.664;23.256;2023-03-15T00:28:46;93573.88;;;5.76;50.81
6528;BME280;64597;42.664;23.256;2023-03-15T00:33:38;93593.03;;;5.89;50.82
6528;BME280;64597;42.664;23.256;2023-03-15T00:36:05;93592.22;;;5.88;50.44
6528;BME280;64597;42.664;23.256;2023-03-15T00:38:35;93592.56;;;5.92;50.95
6528;BME280;64597;42.664;23.256;2023-03-15T00:41:08;93593.69;;;5.96;50.60
6528;BME280;64597;42.664;23.256;2023-03-15T00:43:34;93578.91;;;5.90;50.63
6528;BME280;64597;42.664;23.256;2023-03-15T00:46:00;93583.34;;;5.89;50.84
6528;BME280;64597;42.664;23.256;2023-03-15T00:48:26;93566.41;;;5.92;51.12
6528;BME280;64597;42.664;23.256;2023-03-15T00:51:01;93572.16;;;6.05;50.85
6528;BME280;64597;42.664;23.256;2023-03-15T00:53:26;93566.47;;;6.08;50.72
6528;BME280;64597;42.664;23.256;2023-03-15T00:55:52;93552.97;;;6.00;50.58
6528;BME280;64597;42.664;23.256;2023-03-15T00:58:17;93555.78;;;6.10;51.54
6528;BME280;64597;42.664;23.256;2023-03-15T01:00:43;93552.41;;;5.98;51.10
6528;BME280;64597;42.664;23.256;2023-03-15T01:03:08;93541.03;;;5.92;51.69
6528;BME280;64597;42.664;23.256;2023-03-15T01:05:35;93554.28;;;6.14;51.49
6528;BME280;64597;42.664;23.256;2023-03-15T01:08:00;93558.97;;;6.12;51.59
6528;BME280;64597;42.664;23.256;2023-03-15T01:10:27;93562.63;;;6.11;51.52
6528;BME280;64597;42.664;23.256;2023-03-15T01:12:53;93545.13;;;6.00;51.82
6528;BME280;64597;42.664;23.256;2023-03-15T01:15:18;93558.19;;;6.00;52.23
6528;BME280;64597;42.664;23.256;2023-03-15T01:17:43;93526.94;;;5.93;51.56
6528;BME280;64597;42.664;23.256;2023-03-15T01:20:12;93535.22;;;6.02;51.62
6528;BME280;64597;42.664;23.256;2023-03-15T01:22:37;93536.91;;;6.08;52.18
6528;BME280;64597;42.664;23.256;2023-03-15T01:25:03;93527.56;;;6.12;52.08
6528;BME280;64597;42.664;23.256;2023-03-15T01:27:29;93527.13;;;6.03;52.85
6528;BME280;64597;42.664;23.256;2023-03-15T01:29:54;93526.16;;;5.93;52.58
6528;BME280;64597;42.664;23.256;2023-03-15T01:32:20;93526.34;;;6.03;53.00
6528;BME280;64597;42.664;23.256;2023-03-15T01:34:45;93506.13;;;5.98;52.47
6528;BME280;64597;42.664;23.256;2023-03-15T01:37:10;93524.50;;;6.15;52.76
6528;BME280;64597;42.664;23.256;2023-03-15T01:39:40;93517.53;;;6.20;52.69
6528;BME280;64597;42.664;23.256;2023-03-15T01:42:06;93520.28;;;6.14;52.54
6528;BME280;64597;42.664;23.256;2023-03-15T01:44:55;93508.59;;;6.05;52.66
6528;BME280;64597;42.664;23.256;2023-03-15T01:47:22;93517.00;;;6.07;52.39
6528;BME280;64597;42.664;23.256;2023-03-15T01:50:03;93499.16;;;6.04;52.77
6528;BME280;64597;42.664;23.256;2023-03-15T01:52:34;93508.94;;;6.08;52.97
6528;BME280;64597;42.664;23.256;2023-03-15T01:55:14;93500.28;;;6.08;53.44
6528;BME280;64597;42.664;23.256;2023-03-15T01:57:45;93494.81;;;6.09;52.77
6528;BME280;64597;42.664;23.256;2023-03-15T02:00:14;93493.78;;;6.10;53.12
6528;BME280;64597;42.664;23.256;2023-03-15T02:02:47;93485.63;;;6.07;53.27
6528;BME280;64597;42.664;23.256;2023-03-15T02:05:18;93479.91;;;6.10;52.97
6528;BME280;64597;42.664;23.256;2023-03-15T02:07:44;93464.81;;;6.00;53.76
6528;BME280;64597;42.664;23.256;2023-03-15T02:10:20;93479.91;;;6.10;53.82
6528;BME280;64597;42.664;23.256;2023-03-15T02:12:50;93472.91;;;5.99;54.15
6528;BME280;64597;42.664;23.256;2023-03-15T02:15:17;93477.66;;;6.02;54.30
6528;BME280;64597;42.664;23.256;2023-03-15T02:17:45;93482.09;;;6.01;54.37
6528;BME280;64597;42.664;23.256;2023-03-15T02:23:29;93467.31;;;5.95;54.14
6528;BME280;64597;42.664;23.256;2023-03-15T02:28:40;93470.94;;;6.06;53.49
6528;BME280;64597;42.664;23.256;2023-03-15T02:31:07;93461.84;;;6.08;53.55
6528;BME280;64597;42.664;23.256;2023-03-15T02:33:37;93464.75;;;6.12;53.76
6528;BME280;64597;42.664;23.256;2023-03-15T02:36:10;93462.41;;;6.10;54.22
6528;BME280;64597;42.664;23.256;2023-03-15T02:38:39;93451.78;;;5.89;53.60
6528;BME280;64597;42.664;23.256;2023-03-15T02:41:04;93458.78;;;6.00;53.69
6528;BME280;64597;42.664;23.256;2023-03-15T02:43:31;93456.59;;;6.08;53.55
6528;BME280;64597;42.664;23.256;2023-03-15T02:45:58;93444.84;;;5.82;54.51
6528;BME280;64597;42.664;23.256;2023-03-15T02:48:24;93451.53;;;5.78;55.21
6528;BME280;64597;42.664;23.256;2023-03-15T02:50:50;93458.38;;;5.79;54.44
6528;BME280;64597;42.664;23.256;2023-03-15T02:53:15;93463.59;;;5.79;54.54
6528;BME280;64597;42.664;23.256;2023-03-15T02:55:40;93452.25;;;5.86;54.25
6528;BME280;64597;42.664;23.256;2023-03-15T02:58:06;93448.44;;;5.93;53.67
6528;BME280;64597;42.664;23.256;2023-03-15T03:00:31;93444.50;;;5.91;53.61
6528;BME280;64597;42.664;23.256;2023-03-15T03:02:57;93446.63;;;5.94;53.82
6528;BME280;64597;42.664;23.256;2023-03-15T03:05:23;93446.31;;;5.78;54.49
6528;BME280;64597;42.664;23.256;2023-03-15T03:07:48;93425.53;;;5.72;54.63
6528;BME280;64597;42.664;23.256;2023-03-15T03:10:16;93417.69;;;5.72;53.90
6528;BME280;64597;42.664;23.256;2023-03-15T03:12:42;93431.09;;;5.75;54.42
6528;BME280;64597;42.664;23.256;2023-03-15T03:15:08;93426.31;;;5.72;54.95
6528;BME280;64597;42.664;23.256;2023-03-15T03:17:34;93420.81;;;5.57;55.11
6528;BME280;64597;42.664;23.256;2023-03-15T03:20:10;93427.84;;;5.57;55.41
6528;BME280;64597;42.664;23.256;2023-03-15T03:22:37;93429.47;;;5.58;55.22
6528;BME280;64597;42.664;23.256;2023-03-15T03:25:04;93425.56;;;5.60;55.72
6528;BME280;64597;42.664;23.256;2023-03-15T03:27:30;93425.94;;;5.52;55.35
6528;BME280;64597;42.664;23.256;2023-03-15T03:29:55;93424.16;;;5.41;55.93
6528;BME280;64597;42.664;23.256;2023-03-15T03:32:21;93431.06;;;5.36;55.81
6528;BME280;64597;42.664;23.256;2023-03-15T03:34:46;93410.97;;;5.36;55.87
6528;BME280;64597;42.664;23.256;2023-03-15T03:37:19;93423.44;;;5.46;55.52
6528;BME280;64597;42.664;23.256;2023-03-15T03:39:45;93412.28;;;5.50;55.46
6528;BME280;64597;42.664;23.256;2023-03-15T03:42:10;93406.13;;;5.56;55.17
6528;BME280;64597;42.664;23.256;2023-03-15T03:44:36;93407.75;;;5.57;54.70
6528;BME280;64597;42.664;23.256;2023-03-15T03:47:02;93407.75;;;5.57;54.59
6528;BME280;64597;42.664;23.256;2023-03-15T03:49:28;93405.69;;;5.59;54.58
6528;BME280;64597;42.664;23.256;2023-03-15T03:51:53;93395.56;;;5.63;54.63
6528;BME280;64597;42.664;23.256;2023-03-15T03:54:18;93401.91;;;5.67;54.28
6528;BME280;64597;42.664;23.256;2023-03-15T03:56:47;93389.53;;;5.62;54.58
6528;BME280;64597;42.664;23.256;2023-03-15T03:59:13;93392.56;;;5.71;54.01
6528;BME280;64597;42.664;23.256;2023-03-15T04:01:38;93385.53;;;5.71;53.92
6528;BME280;64597;42.664;23.256;2023-03-15T04:04:04;93390.84;;;5.76;54.49
6528;BME280;64597;42.664;23.256;2023-03-15T04:06:30;93361.00;;;5.61;54.23
6528;BME280;64597;42.664;23.256;2023-03-15T04:08:56;93368.78;;;5.72;54.04
6528;BME280;64597;42.664;23.256;2023-03-15T04:11:21;93371.34;;;5.67;54.38
6528;BME280;64597;42.664;23.256;2023-03-15T04:13:51;93383.22;;;5.75;54.40
6528;BME280;64597;42.664;23.256;2023-03-15T04:16:18;93382.28;;;5.81;54.58
6528;BME280;64597;42.664;23.256;2023-03-15T04:18:43;93364.75;;;5.65;54.44
6528;BME280;64597;42.664;23.256;2023-03-15T04:21:09;93390.06;;;5.76;55.19
6528;BME280;64597;42.664;23.256;2023-03-15T04:23:35;93383.38;;;5.68;54.67
6528;BME280;64597;42.664;23.256;2023-03-15T04:26:01;93383.78;;;5.77;54.49
6528;BME280;64597;42.664;23.256;2023-03-15T04:28:27;93385.41;;;5.78;54.87
6528;BME280;64597;42.664;23.256;2023-03-15T04:30:54;93378.91;;;5.80;54.33
6528;BME280;64597;42.664;23.256;2023-03-15T04:33:27;93378.22;;;5.85;54.81
6528;BME280;64597;42.664;23.256;2023-03-15T04:35:53;93374.34;;;5.88;54.24
6528;BME280;64597;42.664;23.256;2023-03-15T04:38:19;93365.25;;;5.90;54.83
6528;BME280;64597;42.664;23.256;2023-03-15T04:40:51;93362.75;;;5.83;54.68
6528;BME280;64597;42.664;23.256;2023-03-15T04:43:19;93376.16;;;5.87;54.81
6528;BME280;64597;42.664;23.256;2023-03-15T04:45:44;93372.03;;;5.91;55.05
6528;BME280;64597;42.664;23.256;2023-03-15T04:48:10;93368.88;;;5.89;54.43
6528;BME280;64597;42.664;23.256;2023-03-15T04:50:35;93371.50;;;5.77;55.36
6528;BME280;64597;42.664;23.256;2023-03-15T04:53:01;93371.50;;;5.77;55.65
6528;BME280;64597;42.664;23.256;2023-03-15T04:55:26;93369.47;;;5.79;55.89
6528;BME280;64597;42.664;23.256;2023-03-15T04:57:52;93366.28;;;5.77;55.73
6528;BME280;64597;42.664;23.256;2023-03-15T05:00:19;93362.97;;;5.82;56.00
6528;BME280;64597;42.664;23.256;2023-03-15T05:02:46;93364.53;;;5.83;55.46
6528;BME280;64597;42.664;23.256;2023-03-15T05:05:19;93362.88;;;5.89;55.28
6528;BME280;64597;42.664;23.256;2023-03-15T05:07:45;93351.41;;;5.78;55.83
6528;BME280;64597;42.664;23.256;2023-03-15T05:10:11;93372.38;;;5.95;55.80
6528;BME280;64597;42.664;23.256;2023-03-15T05:12:36;93366.69;;;5.98;55.62
6528;BME280;64597;42.664;23.256;2023-03-15T05:15:02;93374.53;;;5.98;55.77
6528;BME280;64597;42.664;23.256;2023-03-15T05:17:28;93374.63;;;6.03;54.96
6528;BME280;64597;42.664;23.256;2023-03-15T05:19:53;93353.34;;;5.99;55.18
6528;BME280;64597;42.664;23.256;2023-03-15T05:22:18;93367.97;;;6.12;54.46
6528;BME280;64597;42.664;23.256;2023-03-15T05:24:49;93376.16;;;6.15;54.37
6528;BME280;64597;42.664;23.256;2023-03-15T05:27:15;93349.22;;;6.03;54.72
6528;BME280;64597;42.664;23.256;2023-03-15T05:29:40;93373.34;;;6.22;54.22
6528;BME280;64597;42.664;23.256;2023-03-15T05:32:06;93360.53;;;6.20;54.35
6528;BME280;64597;42.664;23.256;2023-03-15T05:34:33;93367.13;;;6.23;55.18
6528;BME280;64597;42.664;23.256;2023-03-15T05:37:02;93344.66;;;6.10;54.74
6528;BME280;64597;42.664;23.256;2023-03-15T05:39:27;93349.25;;;6.20;54.87
6528;BME280;64597;42.664;23.256;2023-03-15T05:41:54;93368.84;;;6.34;55.32
6528;BME280;64597;42.664;23.256;2023-03-15T05:44:19;93352.94;;;6.35;55.23
6528;BME280;64597;42.664;23.256;2023-03-15T05:46:45;93346.97;;;6.40;55.27
6528;BME280;64597;42.664;23.256;2023-03-15T05:49:10;93346.09;;;6.51;54.56
6528;BME280;64597;42.664;23.256;2023-03-15T05:51:35;93344.53;;;6.50;55.21
6528;BME280;64597;42.664;23.256;2023-03-15T05:54:01;93357.97;;;6.58;54.56
6528;BME280;64597;42.664;23.256;2023-03-15T05:56:26;93353.63;;;6.64;54.53
6528;BME280;64597;42.664;23.256;2023-03-15T05:58:52;93328.41;;;6.58;53.96
6528;BME280;64597;42.664;23.256;2023-03-15T06:01:17;93349.69;;;6.83;54.46
6528;BME280;64597;42.664;23.256;2023-03-15T06:03:43;93353.00;;;6.95;53.58
6528;BME280;64597;42.664;23.256;2023-03-15T06:06:08;93357.66;;;7.10;53.12
6528;BME280;64597;42.664;23.256;2023-03-15T06:08:34;93356.75;;;7.42;52.09
6528;BME280;64597;42.664;23.256;2023-03-15T06:10:59;93301.03;;;7.30;51.36
6528;BME280;64597;42.664;23.256;2023-03-15T06:13:25;93355.28;;;7.73;50.48
6528;BME280;64597;42.664;23.256;2023-03-15T06:15:50;93328.75;;;7.70;49.22
6528;BME280;64597;42.664;23.256;2023-03-15T06:18:16;93366.50;;;8.17;48.35
6528;BME280;64597;42.664;23.256;2023-03-15T06:20:42;93362.88;;;8.23;46.69
6528;BME280;64597;42.664;23.256;2023-03-15T06:23:08;93356.69;;;8.34;46.87
6528;BME280;64597;42.664;23.256;2023-03-15T06:25:34;93349.19;;;8.21;44.66
6528;BME280;64597;42.664;23.256;2023-03-15T06:28:00;93352.50;;;8.33;44.92
6528;BME280;64597;42.664;23.256;2023-03-15T06:30:25;93356.44;;;8.36;44.18
6528;BME280;64597;42.664;23.256;2023-03-15T06:32:52;93348.41;;;8.47;43.08
6528;BME280;64597;42.664;23.256;2023-03-15T06:35:17;93344.56;;;8.60;43.14
6528;BME280;64597;42.664;23.256;2023-03-15T06:37:43;93349.41;;;8.73;42.75
6528;BME280;64597;42.664;23.256;2023-03-15T06:40:12;93343.19;;;8.89;42.25
6528;BME280;64597;42.664;23.256;2023-03-15T06:42:38;93353.47;;;8.95;41.54
6528;BME280;64597;42.664;23.256;2023-03-15T06:45:05;93339.94;;;9.13;40.59
6528;BME280;64597;42.664;23.256;2023-03-15T06:47:31;93332.63;;;9.31;41.19
6528;BME280;64597;42.664;23.256;2023-03-15T06:49:56;93321.66;;;9.49;40.53
6528;BME280;64597;42.664;23.256;2023-03-15T06:52:22;93337.06;;;9.92;39.79
6528;BME280;64597;42.664;23.256;2023-03-15T06:54:48;93330.81;;;10.18;39.70
6528;BME280;64597;42.664;23.256;2023-03-15T06:57:13;93328.19;;;10.63;38.79
6528;BME280;64597;42.664;23.256;2023-03-15T06:59:39;93311.03;;;10.91;38.51
6528;BME280;64597;42.664;23.256;2023-03-15T07:02:05;93323.53;;;11.54;37.15
6528;BME280;64597;42.664;23.256;2023-03-15T07:04:31;93319.00;;;11.65;36.55
6528;BME280;64597;42.664;23.256;2023-03-15T07:06:56;93320.50;;;11.86;35.90
6528;BME280;64597;42.664;23.256;2023-03-15T07:09:22;93311.56;;;12.26;35.40
6528;BME280;64597;42.664;23.256;2023-03-15T07:11:47;93316.09;;;12.88;34.93
6528;BME280;64597;42.664;23.256;2023-03-15T07:14:12;93304.81;;;13.35;33.46
6528;BME280;64597;42.664;23.256;2023-03-15T07:16:38;93312.84;;;13.48;32.15
6528;BME280;64597;42.664;23.256;2023-03-15T07:19:03;93317.50;;;13.56;32.53
6528;BME280;64597;42.664;23.256;2023-03-15T07:21:29;93302.69;;;13.97;31.76
6528;BME280;64597;42.664;23.256;2023-03-15T07:23:54;93319.59;;;14.01;31.05
6528;BME280;64597;42.664;23.256;2023-03-15T07:26:20;93329.06;;;13.65;31.54
6528;BME280;64597;42.664;23.256;2023-03-15T07:28:46;93316.31;;;13.44;32.19
6528;BME280;64597;42.664;23.256;2023-03-15T07:31:12;93309.00;;;13.36;31.84
6528;BME280;64597;42.664;23.256;2023-03-15T07:33:38;93275.91;;;13.38;31.39
6528;BME280;64597;42.664;23.256;2023-03-15T07:36:05;93295.47;;;14.03;31.13
6528;BME280;64597;42.664;23.256;2023-03-15T07:38:31;93288.22;;;14.08;30.91
6528;BME280;64597;42.664;23.256;2023-03-15T07:41:00;93296.91;;;14.83;30.37
6528;BME280;64597;42.664;23.256;2023-03-15T07:43:26;93278.91;;;15.26;28.57
6528;BME280;64597;42.664;23.256;2023-03-15T07:45:53;93295.28;;;15.47;28.46
6528;BME280;64597;42.664;23.256;2023-03-15T07:48:19;93293.78;;;15.54;29.01
6528;BME280;64597;42.664;23.256;2023-03-15T07:50:45;93299.06;;;15.95;28.49
6528;BME280;64597;42.664;23.256;2023-03-15T07:53:10;93293.75;;;15.95;28.29
6528;BME280;64597;42.664;23.256;2023-03-15T07:55:36;93288.13;;;16.10;27.54
6528;BME280;64597;42.664;23.256;2023-03-15T07:58:01;93285.25;;;16.07;27.12
6528;BME280;64597;42.664;23.256;2023-03-15T08:00:28;93272.91;;;15.89;27.73
6528;BME280;64597;42.664;23.256;2023-03-15T08:02:54;93275.47;;;15.66;28.00
6528;BME280;64597;42.664;23.256;2023-03-15T08:05:20;93272.47;;;15.59;28.08
6528;BME280;64597;42.664;23.256;2023-03-15T08:07:47;93291.63;;;15.70;27.41
6528;BME280;64597;42.664;23.256;2023-03-15T08:10:14;93290.75;;;15.61;27.97
6528;BME280;64597;42.664;23.256;2023-03-15T08:12:40;93294.44;;;16.01;27.77
6528;BME280;64597;42.664;23.256;2023-03-15T08:15:11;93275.28;;;15.77;27.49
6528;BME280;64597;42.664;23.256;2023-03-15T08:17:37;93278.25;;;15.61;27.49
6528;BME280;64597;42.664;23.256;2023-03-15T08:20:03;93276.25;;;15.81;27.77
6528;BME280;64597;42.664;23.256;2023-03-15T08:22:30;93272.47;;;16.09;26.79
6528;BME280;64597;42.664;23.256;2023-03-15T08:24:55;93262.06;;;15.85;27.09
6528;BME280;64597;42.664;23.256;2023-03-15T08:27:25;93256.88;;;15.80;27.79
6528;BME280;64597;42.664;23.256;2023-03-15T08:29:50;93271.91;;;15.85;27.02
6528;BME280;64597;42.664;23.256;2023-03-15T08:32:19;93269.44;;;16.02;27.41
6528;BME280;64597;42.664;23.256;2023-03-15T08:34:45;93268.25;;;16.30;27.23
6528;BME280;64597;42.664;23.256;2023-03-15T08:37:11;93267.19;;;16.31;27.37
6528;BME280;64597;42.664;23.256;2023-03-15T08:39:37;93253.50;;;16.24;27.27
6528;BME280;64597;42.664;23.256;2023-03-15T08:42:04;93243.13;;;16.50;27.10
6528;BME280;64597;42.664;23.256;2023-03-15T08:44:30;93235.72;;;16.69;27.41
6528;BME280;64597;42.664;23.256;2023-03-15T08:46:55;93247.34;;;16.51;27.24
6528;BME280;64597;42.664;23.256;2023-03-15T08:49:21;93240.13;;;16.73;27.18
6528;BME280;64597;42.664;23.256;2023-03-15T08:51:46;93251.03;;;16.63;26.79
6528;BME280;64597;42.664;23.256;2023-03-15T08:54:12;93242.78;;;16.29;27.68
6528;BME280;64597;42.664;23.256;2023-03-15T08:56:39;93230.56;;;15.92;28.13
6528;BME280;64597;42.664;23.256;2023-03-15T08:59:06;93261.91;;;15.82;28.04
6528;BME280;64597;42.664;23.256;2023-03-15T09:01:32;93266.44;;;15.68;28.36
6528;BME280;64597;42.664;23.256;2023-03-15T09:03:57;93257.78;;;15.48;28.32
6528;BME280;64597;42.664;23.256;2023-03-15T09:06:23;93263.44;;;15.83;27.88
6528;BME280;64597;42.664;23.256;2023-03-15T09:08:49;93255.97;;;15.85;28.09
6528;BME280;64597;42.664;23.256;2023-03-15T09:11:15;93258.34;;;15.73;28.21
6528;BME280;64597;42.664;23.256;2023-03-15T09:13:40;93249.31;;;15.46;28.61
6528;BME280;64597;42.664;23.256;2023-03-15T09:16:06;93262.75;;;15.09;28.76
6528;BME280;64597;42.664;23.256;2023-03-15T09:18:34;93243.84;;;14.83;29.60
6528;BME280;64597;42.664;23.256;2023-03-15T09:21:00;93266.38;;;15.00;29.36
6528;BME280;64597;42.664;23.256;2023-03-15T09:23:26;93264.59;;;14.95;29.65
6528;BME280;64597;42.664;23.256;2023-03-15T09:25:51;93260.88;;;14.96;29.79
6528;BME280;64597;42.664;23.256;2023-03-15T09:28:17;93273.25;;;15.01;29.77
6528;BME280;64597;42.664;23.256;2023-03-15T09:30:42;93260.63;;;14.79;29.67
6528;BME280;64597;42.664;23.256;2023-03-15T09:33:08;93264.63;;;14.63;29.81
6528;BME280;64597;42.664;23.256;2023-03-15T09:35:34;93219.38;;;14.22;30.75
6528;BME280;64597;42.664;23.256;2023-03-15T09:37:59;93257.41;;;14.50;30.34
6528;BME280;64597;42.664;23.256;2023-03-15T09:40:28;93260.56;;;14.52;30.63
6528;BME280;64597;42.664;23.256;2023-03-15T09:43:02;93244.81;;;14.42;30.38
6528;BME280;64597;42.664;23.256;2023-03-15T09:48:30;93237.16;;;14.40;30.74
6528;BME280;64597;42.664;23.256;2023-03-15T09:51:05;93219.69;;;14.02;30.68
6528;BME280;64597;42.664;23.256;2023-03-15T09:53:49;93235.22;;;14.08;31.47
6528;BME280;64597;42.664;23.256;2023-03-15T09:56:36;93229.50;;;14.01;31.49
6528;BME280;64597;42.664;23.256;2023-03-15T09:59:05;93231.06;;;14.02;31.41
6528;BME280;64597;42.664;23.256;2023-03-15T10:01:34;93231.84;;;14.03;31.77
6528;BME280;64597;42.664;23.256;2023-03-15T10:06:45;93246.00;;;13.56;31.85
6528;BME280;64597;42.664;23.256;2023-03-15T10:09:15;93245.16;;;13.61;31.94
6528;BME280;64597;42.664;23.256;2023-03-15T10:12:05;93254.91;;;13.65;32.24
6528;BME280;64597;42.664;23.256;2023-03-15T10:17:14;93248.00;;;13.46;32.45
6528;BME280;64597;42.664;23.256;2023-03-15T10:19:49;93243.94;;;13.53;32.79
6528;BME280;64597;42.664;23.256;2023-03-15T10:22:41;93242.53;;;13.61;32.28
6528;BME280;64597;42.664;23.256;2023-03-15T10:25:17;93245.59;;;13.68;32.23
6528;BME280;64597;42.664;23.256;2023-03-15T10:27:50;93245.75;;;13.76;31.91
6528;BME280;64597;42.664;23.256;2023-03-15T10:30:22;93235.66;;;13.78;32.34
6528;BME280;64597;42.664;23.256;2023-03-15T10:32:53;93231.31;;;13.87;32.36
6528;BME280;64597;42.664;23.256;2023-03-15T10:35:21;93220.34;;;13.75;32.10
6528;BME280;64597;42.664;23.256;2023-03-15T10:37:46;93229.84;;;13.76;32.47
6528;BME280;64597;42.664;23.256;2023-03-15T10:40:13;93228.34;;;13.70;32.54
6528;BME280;64597;42.664;23.256;2023-03-15T10:42:45;93226.81;;;13.46;32.57
6528;BME280;64597;42.664;23.256;2023-03-15T10:45:33;93239.44;;;13.91;41.13
6528;BME280;64597;42.664;23.256;2023-03-15T10:47:59;93235.16;;;13.76;33.71
6528;BME280;64597;42.664;23.256;2023-03-15T10:50:29;93227.81;;;13.50;32.66
6528;BME280;64597;42.664;23.256;2023-03-15T10:52:56;93226.22;;;13.30;33.14
6528;BME280;64597;42.664;23.256;2023-03-15T10:55:45;93243.75;;;13.26;33.17
6528;BME280;64597;42.664;23.256;2023-03-15T10:58:23;93241.81;;;13.32;33.00
6528;BME280;64597;42.664;23.256;2023-03-15T11:01:00;93239.63;;;13.39;33.12
6528;BME280;64597;42.664;23.256;2023-03-15T11:03:28;93229.94;;;13.29;33.02
6528;BME280;64597;42.664;23.256;2023-03-15T11:05:57;93238.84;;;13.38;33.16
6528;BME280;64597;42.664;23.256;2023-03-15T11:08:43;93240.47;;;13.34;32.99
6528;BME280;64597;42.664;23.256;2023-03-15T11:11:09;93231.81;;;13.29;33.05
6528;BME280;64597;42.664;23.256;2023-03-15T11:13:37;93236.53;;;13.08;34.08
6528;BME280;64597;42.664;23.256;2023-03-15T11:18:51;93233.66;;;13.04;38.63
6528;BME280;64597;42.664;23.256;2023-03-15T11:21:22;93234.19;;;13.01;39.47
6528;BME280;64597;42.664;23.256;2023-03-15T11:23:50;93228.41;;;12.99;40.64
6528;BME280;64597;42.664;23.256;2023-03-15T11:26:25;93236.31;;;13.04;40.48
6528;BME280;64597;42.664;23.256;2023-03-15T11:28:55;93245.81;;;13.05;42.68
6528;BME280;64597;42.664;23.256;2023-03-15T11:31:25;93250.91;;;12.97;43.29
6528;BME280;64597;42.664;23.256;2023-03-15T11:34:01;93241.63;;;12.99;44.16
6528;BME280;64597;42.664;23.256;2023-03-15T11:36:32;93223.91;;;13.00;43.24
6528;BME280;64597;42.664;23.256;2023-03-15T11:39:00;93221.19;;;13.10;44.03
6528;BME280;64597;42.664;23.256;2023-03-15T11:44:21;93224.03;;;12.90;44.71
6528;BME280;64597;42.664;23.256;2023-03-15T11:46:56;93216.09;;;12.90;44.00
6528;BME280;64597;42.664;23.256;2023-03-15T11:49:45;93210.78;;;12.90;44.61
6528;BME280;64597;42.664;23.256;2023-03-15T11:52:15;93216.97;;;12.52;44.87
6528;BME280;64597;42.664;23.256;2023-03-15T11:54:42;93221.41;;;12.85;43.93
6528;BME280;64597;42.664;23.256;2023-03-15T11:57:37;93223.06;;;12.76;43.19
6528;BME280;64597;42.664;23.256;2023-03-15T12:06:12;93218.91;;;12.70;43.71
6528;BME280;64597;42.664;23.256;2023-03-15T12:08:44;93049.19;;;11.68;43.62
6528;BME280;64597;42.664;23.256;2023-03-15T12:16:40;93205.75;;;12.65;42.00
6528;BME280;64597;42.664;23.256;2023-03-15T12:19:25;93206.56;;;12.65;42.47
6528;BME280;64597;42.664;23.256;2023-03-15T12:21:54;93207.06;;;12.67;42.89
6528;BME280;64597;42.664;23.256;2023-03-15T12:24:26;93201.59;;;12.59;42.34
6528;BME280;64597;42.664;23.256;2023-03-15T12:27:13;93200.25;;;12.61;42.43
6528;BME280;64597;42.664;23.256;2023-03-15T12:29:39;93198.78;;;12.74;42.67
6528;BME280;64597;42.664;23.256;2023-03-15T12:32:13;93171.94;;;12.33;42.00
6528;BME280;64597;42.664;23.256;2023-03-15T12:34:54;93190.63;;;12.41;41.65
6528;BME280;64597;42.664;23.256;2023-03-15T12:37:25;93177.72;;;12.40;41.77
6528;BME280;64597;42.664;23.256;2023-03-15T12:56:33;93162.84;;;11.43;41.42
6528;BME280;64597;42.664;23.256;2023-03-15T12:59:11;93178.06;;;11.56;42.33
6528;BME280;64597;42.664;23.256;2023-03-15T13:01:40;93181.00;;;11.49;41.36
6528;BME280;64597;42.664;23.256;2023-03-15T13:04:08;93185.25;;;11.50;41.91
6528;BME280;64597;42.664;23.256;2023-03-15T13:07:30;93181.06;;;11.39;41.91
6528;BME280;64597;42.664;23.256;2023-03-15T13:09:52;93171.31;;;11.40;42.82
6528;BME280;64597;42.664;23.256;2023-03-15T13:12:35;93177.09;;;11.42;41.98
6528;BME280;64597;42.664;23.256;2023-03-15T13:15:07;93173.91;;;11.45;41.59
6528;BME280;64597;42.664;23.256;2023-03-15T13:17:48;93142.28;;;11.40;41.31
6528;BME280;64597;42.664;23.256;2023-03-15T13:23:17;93166.72;;;11.55;41.06
6528;BME280;64597;42.664;23.256;2023-03-15T13:31:16;93190.53;;;11.50;42.28
6528;BME280;64597;42.664;23.256;2023-03-15T13:33:48;93183.25;;;11.32;42.41
6528;BME280;64597;42.664;23.256;2023-03-15T13:36:16;93184.56;;;11.30;43.37
6528;BME280;64597;42.664;23.256;2023-03-15T13:38:44;93192.50;;;11.25;43.80
6528;BME280;64597;42.664;23.256;2023-03-15T13:43:50;93167.81;;;11.06;44.08
6528;BME280;64597;42.664;23.256;2023-03-15T13:46:20;93182.28;;;11.08;44.82
6528;BME280;64597;42.664;23.256;2023-03-15T13:48:50;93179.91;;;11.07;45.85
6528;BME280;64597;42.664;23.256;2023-03-15T13:51:23;93175.50;;;10.97;46.26
6528;BME280;64597;42.664;23.256;2023-03-15T13:53:52;93197.38;;;10.93;46.24
6528;BME280;64597;42.664;23.256;2023-03-15T13:56:27;93193.19;;;10.82;46.14
6528;BME280;64597;42.664;23.256;2023-03-15T13:58:55;93200.06;;;10.77;47.07
6528;BME280;64597;42.664;23.256;2023-03-15T14:01:22;93202.19;;;10.75;47.99
6528;BME280;64597;42.664;23.256;2023-03-15T14:03:55;93208.53;;;10.69;47.49
6528;BME280;64597;42.664;23.256;2023-03-15T14:06:24;93206.97;;;10.68;47.87
6528;BME280;64597;42.664;23.256;2023-03-15T14:08:59;93190.13;;;10.54;48.13
6528;BME280;64597;42.664;23.256;2023-03-15T14:14:00;93189.63;;;10.42;49.10
6528;BME280;64597;42.664;23.256;2023-03-15T14:16:41;93199.66;;;10.40;49.55